Time,TemperatureF,DewpointF,PressureIn,WindDirection,WindDirectionDegrees,WindSpeedMPH,WindSpeedGustMPH,Humidity,HourlyPrecipIn,Conditions,Clouds,dailyrainin,SoftwareType,DateUTC
2014-01-15 00:04:00,31.5,31.3,29.77,SSW,202,0.0,-999.0,99,-99.99,,,0.00,Acu-Link.com,2014-01-15 05:04:00,
2014-01-15 00:19:00,30.7,30.5,29.79,SW,225,0.0,-999.0,99,-99.99,,,0.00,Acu-Link.com,2014-01-15 05:19:00,
2014-01-15 00:34:00,30.4,30.2,29.78,North,0,0.0,-999.0,99,-99.99,,,0.00,Acu-Link.com,2014-01-15 05:34:00,
2014-01-15 00:50:00,30.4,30.2,29.78,West,270,0.0,-999.0,99,-99.99,,,0.00,Acu-Link.com,2014-01-15 05:50:00,
2014-01-15 01:05:00,31.3,31.1,29.80,South,180,1.7,-999.0,99,-99.99,,,0.00,Acu-Link.com,2014-01-15 06:05:00,
2014-01-15 01:20:00,32.7,32.5,29.81,SW,225,1.7,-999.0,99,-99.99,,,0.00,Acu-Link.com,2014-01-15 06:20:00,
2014-01-15 01:35:00,34.2,33.9,29.82,South,180,2.2,-999.0,99,-99.99,,,0.00,Acu-Link.com,2014-01-15 06:35:00,
2014-01-15 01:51:00,34.0,33.7,29.82,North,0,1.1,-999.0,99,-99.99,,,0.00,Acu-Link.com,2014-01-15 06:51:00,
2014-01-15 02:06:00,33.6,33.3,29.82,WNW,292,0.0,-999.0,99,-99.99,,,0.00,Acu-Link.com,2014-01-15 07:06:00,
2014-01-15 02:22:00,32.4,32.2,29.82,NE,45,0.0,-999.0,99,-99.99,,,0.00,Acu-Link.com,2014-01-15 07:22:00,
2014-01-15 02:37:00,31.5,31.3,29.82,SSW,202,0.0,-999.0,99,-99.99,,,0.00,Acu-Link.com,2014-01-15 07:37:00,
2014-01-15 02:54:00,30.4,30.2,29.82,SSW,202,0.0,-999.0,99,-99.99,,,0.00,Acu-Link.com,2014-01-15 07:54:00,
2014-01-15 03:09:00,29.8,29.6,29.84,ESE,112,0.0,-999.0,99,-99.99,,,0.00,Acu-Link.com,2014-01-15 08:09:00,
2014-01-15 03:25:00,29.3,29.1,29.85,West,270,0.0,-999.0,99,-99.99,,,0.00,Acu-Link.com,2014-01-15 08:25:00,
2014-01-15 03:40:00,28.9,28.7,29.85,NW,315,0.0,-999.0,99,-99.99,,,0.00,Acu-Link.com,2014-01-15 08:40:00,
2014-01-15 03:55:00,28.4,28.2,29.85,SSE,157,0.0,-999.0,99,-99.99,,,0.00,Acu-Link.com,2014-01-15 08:55:00,
2014-01-15 04:10:00,27.9,27.7,29.85,ESE,112,0.0,-999.0,99,-99.99,,,0.00,Acu-Link.com,2014-01-15 09:10:00,
2014-01-15 04:26:00,27.5,27.3,29.86,SSE,157,0.0,-999.0,99,-99.99,,,0.00,Acu-Link.com,2014-01-15 09:26:00,
2014-01-15 04:41:00,27.1,26.9,29.86,South,180,0.0,-999.0,99,-99.99,,,0.00,Acu-Link.com,2014-01-15 09:41:00,
2014-01-15 04:56:00,26.6,26.4,29.87,SW,225,0.0,-999.0,99,-99.99,,,0.00,Acu-Link.com,2014-01-15 09:56:00,
2014-01-15 05:12:00,26.4,26.2,29.88,NW,315,0.0,-999.0,99,-99.99,,,0.00,Acu-Link.com,2014-01-15 10:12:00,
2014-01-15 05:27:00,26.4,26.2,29.88,ENE,67,0.0,-999.0,99,-99.99,,,0.00,Acu-Link.com,2014-01-15 10:27:00,
2014-01-15 05:42:00,26.2,26.0,29.88,South,180,0.0,-999.0,99,-99.99,,,0.00,Acu-Link.com,2014-01-15 10:42:00,
2014-01-15 05:57:00,25.7,25.5,29.88,SSW,202,0.0,-999.0,99,-99.99,,,0.00,Acu-Link.com,2014-01-15 10:57:00,
2014-01-15 06:13:00,25.3,25.1,29.89,East,90,0.0,-999.0,99,-99.99,,,0.00,Acu-Link.com,2014-01-15 11:13:00,
2014-01-15 06:28:00,25.3,25.1,29.89,ENE,67,0.0,-999.0,99,-99.99,,,0.00,Acu-Link.com,2014-01-15 11:28:00,
2014-01-15 06:43:00,25.3,25.1,29.89,ENE,67,0.0,-999.0,99,-99.99,,,0.00,Acu-Link.com,2014-01-15 11:43:00,
2014-01-15 06:58:00,25.0,24.5,29.89,West,270,0.0,-999.0,98,-99.99,,,0.00,Acu-Link.com,2014-01-15 11:58:00,
2014-01-15 07:14:00,25.2,25.0,29.90,ENE,67,0.0,-999.0,99,-99.99,,,0.00,Acu-Link.com,2014-01-15 12:14:00,
2014-01-15 07:29:00,25.2,25.0,29.89,ENE,67,0.0,-999.0,99,-99.99,,,0.00,Acu-Link.com,2014-01-15 12:29:00,
2014-01-15 07:44:00,25.0,24.8,29.90,ENE,67,0.0,-999.0,99,-99.99,,,0.00,Acu-Link.com,2014-01-15 12:44:00,
2014-01-15 08:00:00,25.0,24.8,29.90,ENE,67,0.0,-999.0,99,-99.99,,,0.00,Acu-Link.com,2014-01-15 13:00:00,
2014-01-15 08:15:00,25.0,24.5,29.90,SW,225,0.0,-999.0,98,-99.99,,,0.00,Acu-Link.com,2014-01-15 13:15:00,
2014-01-15 08:30:00,25.5,25.0,29.91,SSE,157,0.0,-999.0,98,-99.99,,,0.00,Acu-Link.com,2014-01-15 13:30:00,
2014-01-15 08:45:00,26.8,26.6,29.92,South,180,0.0,-999.0,99,-99.99,,,0.00,Acu-Link.com,2014-01-15 13:45:00,
2014-01-15 09:00:00,27.3,27.1,29.93,SW,225,0.0,-999.0,99,-99.99,,,0.00,Acu-Link.com,2014-01-15 14:00:00,
2014-01-15 09:16:00,28.8,28.6,29.92,West,270,0.0,-999.0,99,-99.99,,,0.00,Acu-Link.com,2014-01-15 14:16:00,
2014-01-15 09:31:00,30.6,30.4,29.93,WNW,292,0.0,-999.0,99,-99.99,,,0.00,Acu-Link.com,2014-01-15 14:31:00,
2014-01-15 09:46:00,31.6,31.4,29.93,South,180,0.0,-999.0,99,-99.99,,,0.00,Acu-Link.com,2014-01-15 14:46:00,
2014-01-15 10:02:00,32.7,32.5,29.94,SSE,157,0.0,-999.0,99,-99.99,,,0.00,Acu-Link.com,2014-01-15 15:02:00,
2014-01-15 10:17:00,35.2,34.9,29.93,NE,45,0.0,-999.0,99,-99.99,,,0.00,Acu-Link.com,2014-01-15 15:17:00,
2014-01-15 10:32:00,36.5,36.2,29.92,ESE,112,0.0,-999.0,99,-99.99,,,0.00,Acu-Link.com,2014-01-15 15:32:00,
2014-01-15 10:48:00,37.9,37.6,29.93,SE,135,0.0,-999.0,99,-99.99,,,0.01,Acu-Link.com,2014-01-15 15:48:00,
2014-01-15 11:03:00,40.1,39.8,29.92,WNW,292,1.1,-999.0,99,-99.99,,,0.01,Acu-Link.com,2014-01-15 16:03:00,
2014-01-15 11:18:00,41.0,38.3,29.92,SSW,202,3.7,-999.0,90,-99.99,,,0.01,Acu-Link.com,2014-01-15 16:18:00,
2014-01-15 11:33:00,42.1,38.5,29.91,SW,225,3.7,-999.0,87,-99.99,,,0.01,Acu-Link.com,2014-01-15 16:33:00,
2014-01-15 11:48:00,43.0,38.5,29.90,SW,225,1.1,-999.0,84,-99.99,,,0.01,Acu-Link.com,2014-01-15 16:48:00,
2014-01-15 12:04:00,44.1,37.4,29.89,SW,225,2.7,-999.0,77,-99.99,,,0.01,Acu-Link.com,2014-01-15 17:04:00,
2014-01-15 12:19:00,44.6,37.2,29.89,SSW,202,2.7,-999.0,75,-99.99,,,0.01,Acu-Link.com,2014-01-15 17:19:00,
2014-01-15 12:34:00,45.3,37.5,29.88,NE,45,1.7,-999.0,74,-99.99,,,0.01,Acu-Link.com,2014-01-15 17:34:00,
2014-01-15 12:49:00,44.2,35.0,29.88,SSW,202,4.2,-999.0,70,-99.99,,,0.01,Acu-Link.com,2014-01-15 17:49:00,
2014-01-15 13:05:00,44.8,34.1,29.88,SSE,157,4.7,-999.0,66,-99.99,,,0.01,Acu-Link.com,2014-01-15 18:05:00,
2014-01-15 13:20:00,45.0,34.3,29.87,SSW,202,2.2,-999.0,66,-99.99,,,0.01,Acu-Link.com,2014-01-15 18:20:00,
2014-01-15 13:35:00,45.1,34.4,29.87,SE,135,4.7,-999.0,66,-99.99,,,0.01,Acu-Link.com,2014-01-15 18:35:00,
2014-01-15 13:50:00,46.8,35.3,29.86,SW,225,3.2,-999.0,64,-99.99,,,0.01,Acu-Link.com,2014-01-15 18:50:00,
2014-01-15 14:05:00,47.3,34.5,29.84,SW,225,3.2,-999.0,61,-99.99,,,0.01,Acu-Link.com,2014-01-15 19:05:00,
2014-01-15 14:21:00,46.9,35.4,29.84,SSW,202,0.0,-999.0,64,-99.99,,,0.01,Acu-Link.com,2014-01-15 19:21:00,
2014-01-15 14:36:00,46.8,34.9,29.85,SSE,157,3.2,-999.0,63,-99.99,,,0.01,Acu-Link.com,2014-01-15 19:36:00,
2014-01-15 14:51:00,46.6,35.5,29.83,SSE,157,3.7,-999.0,65,-99.99,,,0.01,Acu-Link.com,2014-01-15 19:51:00,
2014-01-15 15:06:00,46.2,35.1,29.83,South,180,2.7,-999.0,65,-99.99,,,0.01,Acu-Link.com,2014-01-15 20:06:00,
2014-01-15 15:21:00,46.2,35.5,29.83,NE,45,2.2,-999.0,66,-99.99,,,0.01,Acu-Link.com,2014-01-15 20:21:00,
2014-01-15 15:36:00,45.9,35.2,29.83,SSW,202,3.7,-999.0,66,-99.99,,,0.01,Acu-Link.com,2014-01-15 20:36:00,
2014-01-15 15:52:00,45.3,35.4,29.84,NE,45,0.0,-999.0,68,-99.99,,,0.01,Acu-Link.com,2014-01-15 20:52:00,
2014-01-15 16:07:00,44.2,35.8,29.84,SE,135,0.0,-999.0,72,-99.99,,,0.01,Acu-Link.com,2014-01-15 21:07:00,
2014-01-15 16:22:00,43.3,35.9,29.84,SE,135,1.7,-999.0,75,-99.99,,,0.01,Acu-Link.com,2014-01-15 21:22:00,
2014-01-15 16:38:00,42.3,35.9,29.84,South,180,0.0,-999.0,78,-99.99,,,0.01,Acu-Link.com,2014-01-15 21:38:00,
2014-01-15 16:53:00,41.9,35.2,29.84,SE,135,1.7,-999.0,77,-99.99,,,0.01,Acu-Link.com,2014-01-15 21:53:00,
2014-01-15 17:08:00,41.7,34.7,29.84,SSW,202,0.0,-999.0,76,-99.99,,,0.01,Acu-Link.com,2014-01-15 22:08:00,
2014-01-15 17:24:00,41.4,34.7,29.84,South,180,2.2,-999.0,77,-99.99,,,0.01,Acu-Link.com,2014-01-15 22:24:00,
2014-01-15 17:39:00,40.6,34.3,29.84,SE,135,0.0,-999.0,78,-99.99,,,0.01,Acu-Link.com,2014-01-15 22:39:00,
2014-01-15 17:54:00,39.2,33.6,29.84,SSE,157,0.0,-999.0,80,-99.99,,,0.01,Acu-Link.com,2014-01-15 22:54:00,
2014-01-15 18:09:00,38.1,32.8,29.83,ESE,112,0.0,-999.0,81,-99.99,,,0.01,Acu-Link.com,2014-01-15 23:09:00,
2014-01-15 18:25:00,37.0,32.3,29.84,NNE,22,0.0,-999.0,83,-99.99,,,0.01,Acu-Link.com,2014-01-15 23:25:00,
2014-01-15 18:40:00,36.1,32.0,29.84,NNE,22,0.0,-999.0,85,-99.99,,,0.01,Acu-Link.com,2014-01-15 23:40:00,
2014-01-15 18:55:00,35.4,31.9,29.84,SSW,202,0.0,-999.0,87,-99.99,,,0.01,Acu-Link.com,2014-01-15 23:55:00,
2014-01-15 19:10:00,35.4,33.3,29.84,NNW,337,0.0,-999.0,92,-99.99,,,0.01,Acu-Link.com,2014-01-16 00:10:00,
2014-01-15 19:26:00,35.4,33.8,29.84,WNW,292,0.0,-999.0,94,-99.99,,,0.01,Acu-Link.com,2014-01-16 00:26:00,
2014-01-15 19:41:00,35.6,34.3,29.84,NE,45,0.0,-999.0,95,-99.99,,,0.01,Acu-Link.com,2014-01-16 00:41:00,
2014-01-15 19:56:00,35.4,34.1,29.84,WSW,247,0.0,-999.0,95,-99.99,,,0.01,Acu-Link.com,2014-01-16 00:56:00,
2014-01-15 20:11:00,35.6,34.3,29.83,ESE,112,0.0,-999.0,95,-99.99,,,0.01,Acu-Link.com,2014-01-16 01:11:00,
2014-01-15 20:27:00,35.4,34.1,29.83,SW,225,0.0,-999.0,95,-99.99,,,0.01,Acu-Link.com,2014-01-16 01:27:00,
2014-01-15 20:42:00,35.4,34.4,29.82,ESE,112,0.0,-999.0,96,-99.99,,,0.01,Acu-Link.com,2014-01-16 01:42:00,
2014-01-15 20:57:00,35.8,35.0,29.82,WNW,292,0.0,-999.0,97,-99.99,,,0.01,Acu-Link.com,2014-01-16 01:57:00,
2014-01-15 21:13:00,36.0,35.2,29.82,ENE,67,0.0,-999.0,97,-99.99,,,0.01,Acu-Link.com,2014-01-16 02:13:00,
2014-01-15 21:28:00,36.0,35.2,29.81,NNE,22,0.0,-999.0,97,-99.99,,,0.01,Acu-Link.com,2014-01-16 02:28:00,
2014-01-15 21:43:00,36.0,35.2,29.82,ESE,112,0.0,-999.0,97,-99.99,,,0.01,Acu-Link.com,2014-01-16 02:43:00,
2014-01-15 21:59:00,36.0,35.5,29.81,East,90,0.0,-999.0,98,-99.99,,,0.01,Acu-Link.com,2014-01-16 02:59:00,
2014-01-15 22:14:00,36.0,35.5,29.81,West,270,0.0,-999.0,98,-99.99,,,0.01,Acu-Link.com,2014-01-16 03:14:00,
2014-01-15 22:29:00,36.3,35.8,29.81,NE,45,0.0,-999.0,98,-99.99,,,0.01,Acu-Link.com,2014-01-16 03:29:00,
2014-01-15 22:45:00,36.3,35.8,29.81,NE,45,0.0,-999.0,98,-99.99,,,0.01,Acu-Link.com,2014-01-16 03:45:00,
2014-01-15 23:00:00,36.3,35.8,29.81,NE,45,0.0,-999.0,98,-99.99,,,0.01,Acu-Link.com,2014-01-16 04:00:00,
2014-01-15 23:15:00,36.3,35.8,29.81,ENE,67,0.0,-999.0,98,-99.99,,,0.01,Acu-Link.com,2014-01-16 04:15:00,
2014-01-15 23:31:00,36.3,35.8,29.81,ENE,67,0.0,-999.0,98,-99.99,,,0.01,Acu-Link.com,2014-01-16 04:31:00,
2014-01-15 23:46:00,36.1,35.6,29.81,ENE,67,0.0,-999.0,98,-99.99,,,0.01,Acu-Link.com,2014-01-16 04:46:00,